Flight Track Log - Related Links

Times and Time Zones

All times are in EST time to prevent confusion due to time zone crossing. See the RPA4317 flight status page for this flight to view local times or setup timezone preferences in your user account.

Time Position Orientation Groundspeed Altitude Reporting Facility
EST Latitude Longitude Course Direction KTS MPH feet Rate Location/Type
Wed 06:30:29 AM 39.8667 -75.2833 237° Southwest 153 176 1,000  Level Philadelphia TRACON
Wed 06:31:11 AM 39.8500 -75.3167 237° Southwest 163 188 2,200 2,278 Climbing Philadelphia TRACON
Wed 06:32:17 AM 39.8500 -75.4000 270° West 266 306 5,100 3,300 Climbing Philadelphia TRACON
Wed 06:33:11 AM 39.9000 -75.4500 323° Northwest 271 312 8,800 3,316 Climbing Philadelphia TRACON
Wed 06:34:11 AM 39.9833 -75.4667 351° North 287 330 11,400 2,100 Climbing Philadelphia TRACON
Wed 06:35:11 AM 40.0667 -75.5000 343° North 308 354 13,000 735 Climbing Philadelphia TRACON
Wed 06:36:38 AM 40.1731 -75.5467 341° North 330 380 13,200 1,102 Climbing New York Center
Wed 06:37:38 AM 40.2483 -75.5981 332° Northwest 317 365 15,700 1,900 Climbing New York Center
Wed 06:38:38 AM 40.3031 -75.6806 311° West 289 333 17,000 650 Climbing New York Center
Wed 06:39:38 AM 40.3522 -75.7550 311° West 295 339 17,000 500 Level New York Center
Wed 06:40:38 AM 40.4069 -75.8353 312° West 303 349 18,000 1,800 Climbing New York Center
Wed 06:41:38 AM 40.4467 -75.9336 298° West 303 349 20,600 2,450 Climbing New York Center
Wed 06:42:38 AM 40.4647 -76.0442 282° West 297 342 22,900 2,100 Climbing New York Center
Wed 06:43:38 AM 40.4803 -76.1572 280° West 308 354 24,800 1,850 Climbing New York Center
Wed 06:44:38 AM 40.5003 -76.2708 283° West 313 360 26,600 1,700 Climbing New York Center
Wed 06:45:38 AM 40.5175 -76.3869 281° West 320 368 28,200 1,400 Climbing New York Center
Wed 06:46:38 AM 40.5369 -76.5058 282° West 326 375 29,400 1,200 Climbing New York Center
Wed 06:47:38 AM 40.5517 -76.6300 279° West 337 388 30,600 1,200 Climbing New York Center
Wed 06:48:38 AM 40.5667 -76.7489 279° West 343 395 31,800 1,550 Climbing New York Center
Wed 06:49:38 AM 40.5786 -76.8811 277° West 337 388 33,700 1,100 Climbing New York Center
Wed 06:50:38 AM 40.5892 -76.9967 277° West 327 376 34,000 150 Climbing New York Center
Wed 06:51:38 AM 40.5972 -77.1178 275° West 333 383 34,000  Level New York Center
Wed 06:52:38 AM 40.6094 -77.2392 278° West 333 383 34,000  Level New York Center
Wed 06:53:38 AM 40.6194 -77.3633 276° West 333 383 34,000  Level New York Center
Wed 06:54:38 AM 40.6292 -77.4847 276° West 333 383 34,000  Level New York Center
Wed 06:56:53 AM 40.6522 -77.7486 277° West 338 389 34,000  Level Cleveland Center
Wed 06:57:54 AM 40.6658 -77.8719 278° West 339 390 34,000  Level Cleveland Center
Wed 06:58:55 AM 40.6833 -77.9975 280° West 343 395 34,000  Level Cleveland Center
Wed 06:59:56 AM 40.7006 -78.1222 280° West 346 398 34,000  Level Cleveland Center
Wed 07:00:58 AM 40.7186 -78.2469 281° West 346 398 34,000  Level Cleveland Center
Wed 07:01:59 AM 40.7392 -78.3989 280° West 347 399 34,000  Level Cleveland Center
Wed 07:03:00 AM 40.7567 -78.5261 280° West 349 402 34,000  Level Cleveland Center
Wed 07:04:02 AM 40.7733 -78.6550 280° West 350 403 34,000  Level Cleveland Center
Wed 07:05:03 AM 40.7908 -78.7853 280° West 353 406 34,000  Level Cleveland Center
Wed 07:06:04 AM 40.8075 -78.9142 280° West 353 406 34,000  Level Cleveland Center
Wed 07:07:06 AM 40.8256 -79.0456 280° West 350 403 34,000  Level Cleveland Center
Wed 07:08:07 AM 40.8417 -79.1683 280° West 345 397 34,000  Level Cleveland Center
Wed 07:09:09 AM 40.8575 -79.2925 280° West 345 397 34,000  Level Cleveland Center
Wed 07:10:10 AM 40.8731 -79.4158 280° West 344 396 34,000  Level Cleveland Center
Wed 07:11:12 AM 40.8883 -79.5397 279° West 344 396 34,000  Level Cleveland Center
Wed 07:12:13 AM 40.9031 -79.6625 279° West 343 395 34,000  Level Cleveland Center
Wed 07:13:15 AM 40.9192 -79.7872 280° West 344 396 34,000  Level Cleveland Center
Wed 07:14:16 AM 40.9372 -79.9361 279° West 344 396 34,000  Level Cleveland Center
Wed 07:15:18 AM 40.9519 -80.0600 279° West 344 396 34,000  Level Cleveland Center
Wed 07:16:20 AM 40.9667 -80.1833 279° West 343 395 34,000  Level Cleveland Center
Wed 07:17:21 AM 40.9814 -80.3072 279° West 341 392 34,000  Level Cleveland Center
Wed 07:18:22 AM 40.9958 -80.4319 279° West 344 396 34,000  Level Cleveland Center
Wed 07:19:24 AM 41.0092 -80.5578 278° West 345 397 34,000  Level Cleveland Center
Wed 07:20:25 AM 41.0278 -80.7067 279° West 344 396 34,000  Level Cleveland Center
Wed 07:21:27 AM 41.0417 -80.8311 278° West 345 397 34,000  Level Cleveland Center
Wed 07:22:28 AM 41.0522 -80.9544 277° West 342 394 34,000  Level Cleveland Center
Wed 07:23:30 AM 41.0614 -81.0886 275° West 342 394 34,000  Level Cleveland Center
Wed 07:24:32 AM 41.0956 -81.2078 291° West 355 409 34,000  Level Cleveland Center
Wed 07:25:33 AM 41.1747 -81.2944 321° Northwest 365 420 34,000  Level Cleveland Center
Wed 07:26:35 AM 41.2489 -81.3886 316° Northwest 373 429 34,000  Level Cleveland Center
Wed 07:27:36 AM 41.2567 -81.5003 275° West 353 406 34,000  Level Cleveland Center
Wed 07:28:38 AM 41.1789 -81.6200 229° Southwest 363 418 34,000  Level Cleveland Center
Wed 07:29:40 AM 41.1089 -81.7117 225° Southwest 364 419 34,000  Level Cleveland Center
Wed 07:30:41 AM 41.0350 -81.8086 225° Southwest 365 420 34,000  Level Cleveland Center
Wed 07:31:43 AM 40.9756 -81.9175 234° Southwest 366 421 34,000  Level Cleveland Center
Wed 07:32:45 AM 40.9808 -82.0472 273° West 352 405 34,000  Level Cleveland Center
Wed 07:33:46 AM 40.9914 -82.1772 276° West 352 405 34,000  Level Cleveland Center
Wed 07:34:48 AM 41.0036 -82.3081 277° West 353 406 34,000  Level Cleveland Center
Wed 07:35:49 AM 41.0153 -82.4383 277° West 352 405 34,000  Level Cleveland Center
Wed 07:36:51 AM 41.0294 -82.5894 277° West 352 405 34,000  Level Cleveland Center
Wed 07:37:53 AM 41.0397 -82.7194 276° West 352 405 34,000  Level Cleveland Center
Wed 07:38:54 AM 41.0511 -82.8503 277° West 352 405 34,000  Level Cleveland Center
Wed 07:39:56 AM 41.0628 -82.9844 277° West 358 412 34,000  Level Cleveland Center
Wed 07:40:58 AM 41.0739 -83.1192 276° West 364 419 34,000  Level Cleveland Center
Wed 07:41:59 AM 41.0839 -83.2450 276° West 365 420 34,000  Level Cleveland Center
Wed 07:43:01 AM 41.0958 -83.3933 276° West 365 420 34,000  Level Cleveland Center
Wed 07:44:03 AM 41.1069 -83.5267 276° West 365 420 34,000  Level Cleveland Center
Wed 07:45:04 AM 41.1172 -83.6603 276° West 365 420 34,000  Level Cleveland Center
Wed 07:46:06 AM 41.1278 -83.7933 276° West 364 419 34,000  Level Cleveland Center
Wed 07:46:55 AM 41.1381 -83.9164 276° West 361 415 34,000  Level Chicago Center
Wed 07:47:56 AM 41.1483 -84.0503 276° West 364 419 34,000  Level Chicago Center
Wed 07:48:58 AM 41.1581 -84.1822 276° West 360 414 34,000  Level Chicago Center
Wed 07:49:59 AM 41.1678 -84.3136 276° West 360 414 34,000  Level Chicago Center
Wed 07:51:00 AM 41.1772 -84.4458 275° West 360 414 34,000  Level Chicago Center
Wed 07:52:02 AM 41.1864 -84.5814 275° West 366 421 34,000  Level Chicago Center
Wed 07:53:03 AM 41.1967 -84.7147 276° West 364 419 34,000  Level Chicago Center
Wed 07:54:05 AM 41.2064 -84.8494 276° West 367 422 34,000  Level Chicago Center
Wed 07:55:06 AM 41.2150 -84.9825 275° West 362 417 34,000 -439 Level Chicago Center
Wed 07:56:08 AM 41.2261 -85.1444 275° West 365 420 33,100 -976 Descending Chicago Center
Wed 07:57:09 AM 41.2344 -85.2747 275° West 358 412 32,000 -1,024 Descending Chicago Center
Wed 07:58:11 AM 41.2442 -85.4075 276° West 357 411 31,000 -780 Descending Chicago Center
Wed 07:59:12 AM 41.2522 -85.5417 275° West 362 417 30,400 -1,220 Descending Chicago Center
Wed 08:00:14 AM 41.2611 -85.6781 275° West 366 421 28,500 -2,049 Descending Chicago Center
Wed 08:01:15 AM 41.2706 -85.8194 275° West 378 435 26,200 -1,707 Descending Chicago Center
Wed 08:02:17 AM 41.2783 -85.9569 274° West 373 429 25,000 -581 Descending Chicago Center
Wed 08:03:19 AM 41.2922 -86.0906 278° West 365 420 25,000 -634 Level Chicago Center
Wed 08:04:20 AM 41.3164 -86.2247 284° West 369 425 23,700 -1,366 Descending Chicago Center
Wed 08:05:22 AM 41.3406 -86.3569 284° West 368 423 22,200 -1,659 Descending Chicago Center
Wed 08:06:23 AM 41.3678 -86.5111 283° West 359 413 20,300 -1,659 Descending Chicago Center
Wed 08:07:25 AM 41.3906 -86.6403 283° West 359 413 18,800 -1,317 Descending Chicago Center
Wed 08:08:26 AM 41.4272 -86.7767 290° West 360 414 17,600 -1,317 Descending Chicago Center
Wed 08:09:28 AM 41.4678 -86.8928 295° West 347 399 16,100 -1,403 Descending Chicago Center
Wed 08:10:30 AM 41.5047 -87.0064 294° West 337 388 14,700 -1,366 Descending Chicago Center
Wed 08:11:31 AM 41.5411 -87.1164 294° West 326 375 13,300 -1,415 Descending Chicago Center
Wed 08:12:33 AM 41.5789 -87.2322 294° West 319 367 11,800 -1,220 Descending Chicago Center
Wed 08:13:34 AM 41.6344 -87.3131 313° West 293 337 10,800 -1,366 Descending Chicago Center
Wed 08:14:36 AM 41.6889 -87.3861 315° West 258 297 9,000 -1,805 Descending Chicago Center
Wed 08:15:37 AM 41.7428 -87.4492 319° Northwest 258 297 7,100 -976 Descending Chicago Center
Wed 08:16:39 AM 41.7986 -87.5117 320° Northwest 263 303 7,000 -48 Descending Chicago Center
Wed 08:17:41 AM 41.8581 -87.5789 320° Northwest 261 300 7,000  Level Chicago Center
Wed 08:18:42 AM 41.8872 -87.6467 300° West 227 261 7,000  Level Chicago Center
Wed 08:19:24 AM 41.8833 -87.7000 264° West 225 259 7,000  Level Chicago TRACON
Wed 08:20:25 AM 41.8833 -87.7833 270° West 189 217 7,000  Level Chicago TRACON
Wed 08:21:25 AM 41.8833 -87.8500 270° West 190 219 7,000  Level Chicago TRACON
Wed 08:22:25 AM 41.8833 -87.9167 270° West 194 223 7,000  Level Chicago TRACON
Wed 08:23:25 AM 41.8833 -88.0000 270° West 192 221 7,000 -300 Level Chicago TRACON
Wed 08:24:25 AM 41.8833 -88.0667 270° West 188 216 6,400 -950 Descending Chicago TRACON
Wed 08:25:25 AM 41.8833 -88.1333 270° West 189 217 5,100 -700 Descending Chicago TRACON
Wed 08:26:25 AM 41.8833 -88.2000 270° West 183 211 5,000 -50 Descending Chicago TRACON
Wed 08:27:25 AM 41.8833 -88.2667 270° West 228 262 5,000  Level Chicago TRACON
Wed 08:27:56 AM 41.8831 -88.3042 269° West 186 214 5,000  Level Chicago Center
Wed 08:28:58 AM 41.8836 -88.3731 271° West 185 213 5,000  Level Chicago Center
Wed 08:29:59 AM 41.8831 -88.4472 269° West 186 214 5,000  Level Chicago Center
Wed 08:31:01 AM 41.8836 -88.5164 271° West 186 214 5,000  Level Chicago Center
Wed 08:32:02 AM 41.8881 -88.5894 275° West 184 212 5,000  Level Chicago Center
Wed 08:33:04 AM 41.9397 -88.5919 358° North 186 214 5,000  Level Chicago Center
Wed 08:34:06 AM 41.9633 -88.5333 62° Northeast 181 208 5,000  Level Chicago Center
Wed 08:35:07 AM 41.9625 -88.4594 91° East 182 209 5,000  Level Chicago Center
Wed 08:36:09 AM 41.9633 -88.3903 89° East 184 212 5,000  Level Chicago Center
Wed 08:37:11 AM 41.9625 -88.3225 91° East 182 209 5,000  Level Chicago Center
Wed 08:38:13 AM 41.9639 -88.2492 89° East 183 211 5,000 -195 Level Chicago Center
Wed 08:39:14 AM 41.9642 -88.1825 90° East 180 207 4,600 -683 Descending Chicago Center
Wed 08:40:16 AM 41.9642 -88.1192 90° East 171 197 3,600 -968 Descending Chicago Center
Wed 08:41:18 AM 41.9644 -88.0536 90° East 164 189 2,600 -871 Descending Chicago Center
Wed 08:42:20 AM 41.9644 -87.9997 90° East 147 169 1,800 -756 Descending Chicago Center
Wed 08:43:33 AM 41.9667 -87.9500 87° East 121 139 900 -740 Descending Chicago TRACON

Login

Don't have an account? Register now (free) for customized features, flight alerts, and more!